sensor_id;sensor_type;location;lat;lon;timestamp;temperature;humidity
11446;DHT22;5779;64.178;15.432;2023-06-22T00:01:18;17.20;99.90
11446;DHT22;5779;64.178;15.432;2023-06-22T00:04:06;17.20;99.90
11446;DHT22;5779;64.178;15.432;2023-06-22T00:06:53;17.30;99.90
11446;DHT22;5779;64.178;15.432;2023-06-22T00:09:41;17.40;99.90
11446;DHT22;5779;64.178;15.432;2023-06-22T00:12:28;17.40;99.90
11446;DHT22;5779;64.178;15.432;2023-06-22T00:15:15;17.50;99.90
11446;DHT22;5779;64.178;15.432;2023-06-22T00:18:02;17.40;99.90
11446;DHT22;5779;64.178;15.432;2023-06-22T00:20:49;17.40;99.90
11446;DHT22;5779;64.178;15.432;2023-06-22T00:23:42;17.40;99.90
11446;DHT22;5779;64.178;15.432;2023-06-22T00:26:30;17.60;99.90
11446;DHT22;5779;64.178;15.432;2023-06-22T00:29:18;17.50;99.90
11446;DHT22;5779;64.178;15.432;2023-06-22T00:32:05;17.60;99.90
11446;DHT22;5779;64.178;15.432;2023-06-22T00:34:52;17.60;99.90
11446;DHT22;5779;64.178;15.432;2023-06-22T00:37:39;17.40;99.90
11446;DHT22;5779;64.178;15.432;2023-06-22T00:40:27;17.50;99.90
11446;DHT22;5779;64.178;15.432;2023-06-22T00:43:16;17.70;99.90
11446;DHT22;5779;64.178;15.432;2023-06-22T00:46:03;17.80;99.90
11446;DHT22;5779;64.178;15.432;2023-06-22T00:48:50;17.70;99.90
11446;DHT22;5779;64.178;15.432;2023-06-22T00:51:40;17.80;99.90
11446;DHT22;5779;64.178;15.432;2023-06-22T00:54:33;17.80;99.90
11446;DHT22;5779;64.178;15.432;2023-06-22T00:57:22;17.90;99.90
11446;DHT22;5779;64.178;15.432;2023-06-22T01:00:15;17.90;99.90
11446;DHT22;5779;64.178;15.432;2023-06-22T01:03:04;18.00;99.90
11446;DHT22;5779;64.178;15.432;2023-06-22T01:05:58;17.90;99.90
11446;DHT22;5779;64.178;15.432;2023-06-22T01:08:53;18.10;99.90
11446;DHT22;5779;64.178;15.432;2023-06-22T01:11:47;18.10;99.90
11446;DHT22;5779;64.178;15.432;2023-06-22T01:14:39;18.10;99.90
11446;DHT22;5779;64.178;15.432;2023-06-22T01:17:30;18.10;99.90
11446;DHT22;5779;64.178;15.432;2023-06-22T01:20:18;18.40;99.90
11446;DHT22;5779;64.178;15.432;2023-06-22T01:23:14;18.30;99.90
11446;DHT22;5779;64.178;15.432;2023-06-22T01:26:08;18.30;99.90
11446;DHT22;5779;64.178;15.432;2023-06-22T01:29:01;18.30;99.90
11446;DHT22;5779;64.178;15.432;2023-06-22T01:31:51;18.30;99.90
11446;DHT22;5779;64.178;15.432;2023-06-22T01:34:39;18.20;99.90
11446;DHT22;5779;64.178;15.432;2023-06-22T01:37:28;18.30;99.90
11446;DHT22;5779;64.178;15.432;2023-06-22T01:40:17;18.40;99.90
11446;DHT22;5779;64.178;15.432;2023-06-22T01:43:05;18.30;99.90
11446;DHT22;5779;64.178;15.432;2023-06-22T01:45:54;18.30;99.90
11446;DHT22;5779;64.178;15.432;2023-06-22T01:48:41;18.20;99.90
11446;DHT22;5779;64.178;15.432;2023-06-22T01:51:28;18.10;99.90
11446;DHT22;5779;64.178;15.432;2023-06-22T01:54:15;17.90;99.90
11446;DHT22;5779;64.178;15.432;2023-06-22T01:57:03;18.00;99.90
11446;DHT22;5779;64.178;15.432;2023-06-22T01:59:55;18.10;99.90
11446;DHT22;5779;64.178;15.432;2023-06-22T02:02:51;18.10;99.90
11446;DHT22;5779;64.178;15.432;2023-06-22T02:05:43;18.00;99.90
11446;DHT22;5779;64.178;15.432;2023-06-22T02:08:41;18.00;99.90
11446;DHT22;5779;64.178;15.432;2023-06-22T02:11:29;18.00;99.90
11446;DHT22;5779;64.178;15.432;2023-06-22T02:14:17;17.90;99.90
11446;DHT22;5779;64.178;15.432;2023-06-22T02:17:04;17.80;99.90
11446;DHT22;5779;64.178;15.432;2023-06-22T02:19:54;17.80;99.90
11446;DHT22;5779;64.178;15.432;2023-06-22T02:22:41;17.90;99.90
11446;DHT22;5779;64.178;15.432;2023-06-22T02:25:28;18.00;99.90
11446;DHT22;5779;64.178;15.432;2023-06-22T02:28:14;18.20;99.90
11446;DHT22;5779;64.178;15.432;2023-06-22T02:31:01;18.40;99.90
11446;DHT22;5779;64.178;15.432;2023-06-22T02:33:48;18.40;99.90
11446;DHT22;5779;64.178;15.432;2023-06-22T02:36:36;18.40;99.90
11446;DHT22;5779;64.178;15.432;2023-06-22T02:39:24;18.40;99.90
11446;DHT22;5779;64.178;15.432;2023-06-22T02:42:11;18.50;99.90
11446;DHT22;5779;64.178;15.432;2023-06-22T02:44:58;18.40;99.90
11446;DHT22;5779;64.178;15.432;2023-06-22T02:47:45;18.40;99.90
11446;DHT22;5779;64.178;15.432;2023-06-22T02:50:33;18.40;99.90
11446;DHT22;5779;64.178;15.432;2023-06-22T02:53:21;18.20;99.90
11446;DHT22;5779;64.178;15.432;2023-06-22T02:56:08;18.30;99.90
11446;DHT22;5779;64.178;15.432;2023-06-22T02:58:55;18.30;99.90
11446;DHT22;5779;64.178;15.432;2023-06-22T03:01:46;18.10;99.90
11446;DHT22;5779;64.178;15.432;2023-06-22T03:04:34;18.30;99.90
11446;DHT22;5779;64.178;15.432;2023-06-22T03:07:21;18.30;99.90
11446;DHT22;5779;64.178;15.432;2023-06-22T03:10:10;18.20;99.90
11446;DHT22;5779;64.178;15.432;2023-06-22T03:12:57;18.10;99.90
11446;DHT22;5779;64.178;15.432;2023-06-22T03:15:44;17.90;99.90
11446;DHT22;5779;64.178;15.432;2023-06-22T03:18:31;17.80;99.90
11446;DHT22;5779;64.178;15.432;2023-06-22T03:21:18;17.90;99.90
11446;DHT22;5779;64.178;15.432;2023-06-22T03:24:06;17.90;99.90
11446;DHT22;5779;64.178;15.432;2023-06-22T03:26:54;17.90;99.90
11446;DHT22;5779;64.178;15.432;2023-06-22T03:29:41;17.90;99.90
11446;DHT22;5779;64.178;15.432;2023-06-22T03:32:29;17.90;99.90
11446;DHT22;5779;64.178;15.432;2023-06-22T03:35:16;17.80;99.90
11446;DHT22;5779;64.178;15.432;2023-06-22T03:38:03;17.50;99.90
11446;DHT22;5779;64.178;15.432;2023-06-22T03:40:50;17.60;99.90
11446;DHT22;5779;64.178;15.432;2023-06-22T03:43:38;17.60;99.90
11446;DHT22;5779;64.178;15.432;2023-06-22T03:46:25;17.60;99.90
11446;DHT22;5779;64.178;15.432;2023-06-22T03:49:12;17.60;99.90
11446;DHT22;5779;64.178;15.432;2023-06-22T03:51:59;17.60;99.90
11446;DHT22;5779;64.178;15.432;2023-06-22T03:54:47;17.60;99.90
11446;DHT22;5779;64.178;15.432;2023-06-22T03:57:34;17.60;99.90
11446;DHT22;5779;64.178;15.432;2023-06-22T04:00:22;17.70;99.90
11446;DHT22;5779;64.178;15.432;2023-06-22T04:03:09;17.70;99.90
11446;DHT22;5779;64.178;15.432;2023-06-22T04:05:57;17.80;99.90
11446;DHT22;5779;64.178;15.432;2023-06-22T04:08:45;17.70;99.90
11446;DHT22;5779;64.178;15.432;2023-06-22T04:11:35;17.60;99.90
11446;DHT22;5779;64.178;15.432;2023-06-22T04:14:22;17.30;99.90
11446;DHT22;5779;64.178;15.432;2023-06-22T04:17:10;17.50;99.90
11446;DHT22;5779;64.178;15.432;2023-06-22T04:20:00;17.60;99.90
11446;DHT22;5779;64.178;15.432;2023-06-22T04:22:48;17.80;99.90
11446;DHT22;5779;64.178;15.432;2023-06-22T04:25:35;17.90;99.90
11446;DHT22;5779;64.178;15.432;2023-06-22T04:28:22;18.10;99.90
11446;DHT22;5779;64.178;15.432;2023-06-22T04:31:09;17.90;99.90
11446;DHT22;5779;64.178;15.432;2023-06-22T04:33:57;17.90;99.90
11446;DHT22;5779;64.178;15.432;2023-06-22T04:36:51;17.70;99.90
11446;DHT22;5779;64.178;15.432;2023-06-22T04:39:38;17.30;99.90
11446;DHT22;5779;64.178;15.432;2023-06-22T04:42:26;17.30;99.90
11446;DHT22;5779;64.178;15.432;2023-06-22T04:45:14;17.60;99.90
11446;DHT22;5779;64.178;15.432;2023-06-22T04:48:00;17.70;99.90
11446;DHT22;5779;64.178;15.432;2023-06-22T04:50:49;17.90;99.90
11446;DHT22;5779;64.178;15.432;2023-06-22T04:53:36;18.00;99.90
11446;DHT22;5779;64.178;15.432;2023-06-22T04:56:25;18.10;99.90
11446;DHT22;5779;64.178;15.432;2023-06-22T04:59:13;18.20;99.90
11446;DHT22;5779;64.178;15.432;2023-06-22T05:02:01;18.30;99.90
11446;DHT22;5779;64.178;15.432;2023-06-22T05:04:48;18.40;99.90
11446;DHT22;5779;64.178;15.432;2023-06-22T05:07:38;18.40;99.90
11446;DHT22;5779;64.178;15.432;2023-06-22T05:10:24;18.50;99.90
11446;DHT22;5779;64.178;15.432;2023-06-22T05:13:11;18.60;99.90
11446;DHT22;5779;64.178;15.432;2023-06-22T05:15:58;18.70;99.90
11446;DHT22;5779;64.178;15.432;2023-06-22T05:18:48;18.80;99.90
11446;DHT22;5779;64.178;15.432;2023-06-22T05:21:35;18.90;99.90
11446;DHT22;5779;64.178;15.432;2023-06-22T05:24:23;18.90;99.90
11446;DHT22;5779;64.178;15.432;2023-06-22T05:27:10;19.00;99.90
11446;DHT22;5779;64.178;15.432;2023-06-22T05:29:57;19.10;99.90
11446;DHT22;5779;64.178;15.432;2023-06-22T05:32:44;19.10;99.90
11446;DHT22;5779;64.178;15.432;2023-06-22T05:35:31;19.10;99.90
11446;DHT22;5779;64.178;15.432;2023-06-22T05:38:18;19.10;99.90
11446;DHT22;5779;64.178;15.432;2023-06-22T05:41:07;19.20;99.90
11446;DHT22;5779;64.178;15.432;2023-06-22T05:43:54;19.10;99.90
11446;DHT22;5779;64.178;15.432;2023-06-22T05:46:42;19.00;99.90
11446;DHT22;5779;64.178;15.432;2023-06-22T05:49:29;18.90;99.90
11446;DHT22;5779;64.178;15.432;2023-06-22T05:52:18;19.00;99.90
11446;DHT22;5779;64.178;15.432;2023-06-22T05:55:05;19.10;99.90
11446;DHT22;5779;64.178;15.432;2023-06-22T05:57:54;19.10;99.90
11446;DHT22;5779;64.178;15.432;2023-06-22T06:00:41;19.10;99.90
11446;DHT22;5779;64.178;15.432;2023-06-22T06:03:28;19.20;99.90
11446;DHT22;5779;64.178;15.432;2023-06-22T06:06:15;19.40;99.90
11446;DHT22;5779;64.178;15.432;2023-06-22T06:09:03;19.30;99.90
11446;DHT22;5779;64.178;15.432;2023-06-22T06:11:50;19.20;99.90
11446;DHT22;5779;64.178;15.432;2023-06-22T06:14:39;18.90;99.90
11446;DHT22;5779;64.178;15.432;2023-06-22T06:17:26;18.70;99.90
11446;DHT22;5779;64.178;15.432;2023-06-22T06:20:12;18.80;99.90
11446;DHT22;5779;64.178;15.432;2023-06-22T06:22:59;18.90;99.90
11446;DHT22;5779;64.178;15.432;2023-06-22T06:25:47;18.90;99.90
11446;DHT22;5779;64.178;15.432;2023-06-22T06:28:34;19.00;99.90
11446;DHT22;5779;64.178;15.432;2023-06-22T06:31:22;19.00;99.90
11446;DHT22;5779;64.178;15.432;2023-06-22T06:34:09;19.00;99.90
11446;DHT22;5779;64.178;15.432;2023-06-22T06:36:56;18.70;99.90
11446;DHT22;5779;64.178;15.432;2023-06-22T06:39:43;18.10;99.90
11446;DHT22;5779;64.178;15.432;2023-06-22T06:42:29;17.80;99.90
11446;DHT22;5779;64.178;15.432;2023-06-22T06:45:18;17.60;99.90
11446;DHT22;5779;64.178;15.432;2023-06-22T06:48:06;17.50;99.90
11446;DHT22;5779;64.178;15.432;2023-06-22T06:50:54;17.70;99.90
11446;DHT22;5779;64.178;15.432;2023-06-22T06:53:41;17.90;99.90
11446;DHT22;5779;64.178;15.432;2023-06-22T06:56:27;17.90;99.90
11446;DHT22;5779;64.178;15.432;2023-06-22T06:59:15;18.10;99.90
11446;DHT22;5779;64.178;15.432;2023-06-22T07:02:04;18.20;99.90
11446;DHT22;5779;64.178;15.432;2023-06-22T07:04:52;18.20;99.90
11446;DHT22;5779;64.178;15.432;2023-06-22T07:07:40;18.30;99.90
11446;DHT22;5779;64.178;15.432;2023-06-22T07:10:28;18.50;99.90
11446;DHT22;5779;64.178;15.432;2023-06-22T07:13:16;18.60;99.90
11446;DHT22;5779;64.178;15.432;2023-06-22T07:16:03;18.60;99.90
11446;DHT22;5779;64.178;15.432;2023-06-22T07:18:50;18.70;99.90
11446;DHT22;5779;64.178;15.432;2023-06-22T07:21:38;18.70;99.90
11446;DHT22;5779;64.178;15.432;2023-06-22T07:24:25;18.80;99.90
11446;DHT22;5779;64.178;15.432;2023-06-22T07:27:13;18.80;99.90
11446;DHT22;5779;64.178;15.432;2023-06-22T07:30:04;18.80;99.90
11446;DHT22;5779;64.178;15.432;2023-06-22T07:32:51;18.80;99.90
11446;DHT22;5779;64.178;15.432;2023-06-22T07:35:38;18.90;99.90
11446;DHT22;5779;64.178;15.432;2023-06-22T07:38:26;18.90;99.90
11446;DHT22;5779;64.178;15.432;2023-06-22T07:41:13;19.00;99.90
11446;DHT22;5779;64.178;15.432;2023-06-22T07:44:02;18.90;99.90
11446;DHT22;5779;64.178;15.432;2023-06-22T07:46:50;19.00;99.90
11446;DHT22;5779;64.178;15.432;2023-06-22T07:49:36;19.10;99.90
11446;DHT22;5779;64.178;15.432;2023-06-22T07:52:23;19.10;99.90
11446;DHT22;5779;64.178;15.432;2023-06-22T07:55:13;19.10;99.90
11446;DHT22;5779;64.178;15.432;2023-06-22T07:57:59;19.00;99.90
11446;DHT22;5779;64.178;15.432;2023-06-22T08:00:47;18.90;99.90
11446;DHT22;5779;64.178;15.432;2023-06-22T08:03:34;18.80;99.90
11446;DHT22;5779;64.178;15.432;2023-06-22T08:06:21;18.80;99.90
11446;DHT22;5779;64.178;15.432;2023-06-22T08:09:08;18.90;99.90
11446;DHT22;5779;64.178;15.432;2023-06-22T08:11:56;18.90;99.90
11446;DHT22;5779;64.178;15.432;2023-06-22T08:14:44;18.90;99.90
11446;DHT22;5779;64.178;15.432;2023-06-22T08:17:31;18.80;99.90
11446;DHT22;5779;64.178;15.432;2023-06-22T08:20:18;18.60;99.90
11446;DHT22;5779;64.178;15.432;2023-06-22T08:23:05;18.70;99.90
11446;DHT22;5779;64.178;15.432;2023-06-22T08:25:52;18.60;99.90
11446;DHT22;5779;64.178;15.432;2023-06-22T08:28:40;18.30;99.90
11446;DHT22;5779;64.178;15.432;2023-06-22T08:31:27;18.40;99.90
11446;DHT22;5779;64.178;15.432;2023-06-22T08:34:13;18.30;99.90
11446;DHT22;5779;64.178;15.432;2023-06-22T08:37:01;18.10;99.90
11446;DHT22;5779;64.178;15.432;2023-06-22T08:39:51;18.10;99.90
11446;DHT22;5779;64.178;15.432;2023-06-22T08:42:41;18.00;99.90
11446;DHT22;5779;64.178;15.432;2023-06-22T08:45:29;17.90;99.90
11446;DHT22;5779;64.178;15.432;2023-06-22T08:48:16;17.80;99.90
11446;DHT22;5779;64.178;15.432;2023-06-22T08:51:04;17.80;99.90
11446;DHT22;5779;64.178;15.432;2023-06-22T08:53:51;17.80;99.90
11446;DHT22;5779;64.178;15.432;2023-06-22T08:56:38;17.70;99.90
11446;DHT22;5779;64.178;15.432;2023-06-22T08:59:25;17.30;99.90
11446;DHT22;5779;64.178;15.432;2023-06-22T09:02:13;17.30;99.90
11446;DHT22;5779;64.178;15.432;2023-06-22T09:05:03;17.40;99.90
11446;DHT22;5779;64.178;15.432;2023-06-22T09:07:50;17.30;99.90
11446;DHT22;5779;64.178;15.432;2023-06-22T09:10:36;17.20;99.90
11446;DHT22;5779;64.178;15.432;2023-06-22T09:13:23;17.20;99.90
11446;DHT22;5779;64.178;15.432;2023-06-22T09:16:11;17.30;99.90
11446;DHT22;5779;64.178;15.432;2023-06-22T09:18:59;17.50;99.90
11446;DHT22;5779;64.178;15.432;2023-06-22T09:21:46;17.40;99.90
11446;DHT22;5779;64.178;15.432;2023-06-22T09:24:33;17.40;99.90
11446;DHT22;5779;64.178;15.432;2023-06-22T09:27:20;17.40;99.90
11446;DHT22;5779;64.178;15.432;2023-06-22T09:30:08;17.50;99.90
11446;DHT22;5779;64.178;15.432;2023-06-22T09:32:55;17.60;99.90
11446;DHT22;5779;64.178;15.432;2023-06-22T09:35:43;17.70;99.90
11446;DHT22;5779;64.178;15.432;2023-06-22T09:38:30;18.00;99.90
11446;DHT22;5779;64.178;15.432;2023-06-22T09:41:17;17.90;99.90
11446;DHT22;5779;64.178;15.432;2023-06-22T09:44:04;18.00;99.90
11446;DHT22;5779;64.178;15.432;2023-06-22T09:46:51;17.80;99.90
11446;DHT22;5779;64.178;15.432;2023-06-22T09:49:38;17.70;99.90
11446;DHT22;5779;64.178;15.432;2023-06-22T09:52:26;17.70;99.90
11446;DHT22;5779;64.178;15.432;2023-06-22T09:55:13;17.50;99.90
11446;DHT22;5779;64.178;15.432;2023-06-22T09:58:01;17.60;99.90
11446;DHT22;5779;64.178;15.432;2023-06-22T10:00:48;17.60;99.90
11446;DHT22;5779;64.178;15.432;2023-06-22T10:03:35;17.60;99.90
11446;DHT22;5779;64.178;15.432;2023-06-22T10:06:22;17.50;99.90
11446;DHT22;5779;64.178;15.432;2023-06-22T10:09:11;17.40;99.90
11446;DHT22;5779;64.178;15.432;2023-06-22T10:11:58;17.60;99.90
11446;DHT22;5779;64.178;15.432;2023-06-22T10:14:44;17.60;99.90
11446;DHT22;5779;64.178;15.432;2023-06-22T10:17:31;17.80;99.90
11446;DHT22;5779;64.178;15.432;2023-06-22T10:20:18;17.20;99.90
11446;DHT22;5779;64.178;15.432;2023-06-22T10:23:07;15.70;99.90
11446;DHT22;5779;64.178;15.432;2023-06-22T10:25:55;14.80;99.90
11446;DHT22;5779;64.178;15.432;2023-06-22T10:28:43;14.40;99.90
11446;DHT22;5779;64.178;15.432;2023-06-22T10:31:30;14.30;99.90
11446;DHT22;5779;64.178;15.432;2023-06-22T10:34:17;14.20;99.90
11446;DHT22;5779;64.178;15.432;2023-06-22T10:37:04;14.10;99.90
11446;DHT22;5779;64.178;15.432;2023-06-22T10:39:51;14.00;99.90
11446;DHT22;5779;64.178;15.432;2023-06-22T10:42:40;13.90;99.90
11446;DHT22;5779;64.178;15.432;2023-06-22T10:45:27;13.90;99.90
11446;DHT22;5779;64.178;15.432;2023-06-22T10:48:14;13.80;99.90
11446;DHT22;5779;64.178;15.432;2023-06-22T10:51:01;13.80;99.90
11446;DHT22;5779;64.178;15.432;2023-06-22T10:53:48;13.80;99.90
11446;DHT22;5779;64.178;15.432;2023-06-22T10:56:36;13.80;99.90
11446;DHT22;5779;64.178;15.432;2023-06-22T10:59:24;13.80;99.90
11446;DHT22;5779;64.178;15.432;2023-06-22T11:02:11;13.80;99.90
11446;DHT22;5779;64.178;15.432;2023-06-22T11:04:58;13.80;99.90
11446;DHT22;5779;64.178;15.432;2023-06-22T11:07:46;13.80;99.90
11446;DHT22;5779;64.178;15.432;2023-06-22T11:10:34;13.80;99.90
11446;DHT22;5779;64.178;15.432;2023-06-22T11:13:21;13.90;99.90
11446;DHT22;5779;64.178;15.432;2023-06-22T11:16:10;14.00;99.90
11446;DHT22;5779;64.178;15.432;2023-06-22T11:18:57;14.10;99.90
11446;DHT22;5779;64.178;15.432;2023-06-22T11:21:44;14.10;99.90
11446;DHT22;5779;64.178;15.432;2023-06-22T11:24:31;14.20;99.90
11446;DHT22;5779;64.178;15.432;2023-06-22T11:27:18;14.00;99.90
11446;DHT22;5779;64.178;15.432;2023-06-22T11:30:05;14.00;99.90
11446;DHT22;5779;64.178;15.432;2023-06-22T11:32:54;14.10;99.90
11446;DHT22;5779;64.178;15.432;2023-06-22T11:35:41;14.20;99.90
11446;DHT22;5779;64.178;15.432;2023-06-22T11:38:28;14.00;99.90
11446;DHT22;5779;64.178;15.432;2023-06-22T11:41:16;14.10;99.90
11446;DHT22;5779;64.178;15.432;2023-06-22T11:44:03;14.10;99.90
11446;DHT22;5779;64.178;15.432;2023-06-22T11:46:49;14.00;99.90
11446;DHT22;5779;64.178;15.432;2023-06-22T11:49:38;14.00;99.90
11446;DHT22;5779;64.178;15.432;2023-06-22T11:52:25;14.00;99.90
11446;DHT22;5779;64.178;15.432;2023-06-22T11:55:13;14.00;99.90
11446;DHT22;5779;64.178;15.432;2023-06-22T11:58:00;14.00;99.90
11446;DHT22;5779;64.178;15.432;2023-06-22T12:00:49;14.10;99.90
11446;DHT22;5779;64.178;15.432;2023-06-22T12:03:37;14.20;99.90
11446;DHT22;5779;64.178;15.432;2023-06-22T12:06:25;14.30;99.90
11446;DHT22;5779;64.178;15.432;2023-06-22T12:09:13;14.40;99.90
11446;DHT22;5779;64.178;15.432;2023-06-22T12:12:00;14.40;99.90
11446;DHT22;5779;64.178;15.432;2023-06-22T12:14:48;14.60;99.90
11446;DHT22;5779;64.178;15.432;2023-06-22T12:17:34;14.60;99.90
11446;DHT22;5779;64.178;15.432;2023-06-22T12:20:21;14.80;99.90
11446;DHT22;5779;64.178;15.432;2023-06-22T12:23:09;14.60;99.90
11446;DHT22;5779;64.178;15.432;2023-06-22T12:25:56;14.50;99.90
11446;DHT22;5779;64.178;15.432;2023-06-22T12:28:45;14.60;99.90
11446;DHT22;5779;64.178;15.432;2023-06-22T12:31:31;14.70;99.90
11446;DHT22;5779;64.178;15.432;2023-06-22T12:34:18;14.60;99.90
11446;DHT22;5779;64.178;15.432;2023-06-22T12:37:06;14.60;99.90
11446;DHT22;5779;64.178;15.432;2023-06-22T12:39:55;14.80;99.90
11446;DHT22;5779;64.178;15.432;2023-06-22T12:42:42;14.70;99.90
11446;DHT22;5779;64.178;15.432;2023-06-22T12:45:29;14.70;99.90
11446;DHT22;5779;64.178;15.432;2023-06-22T12:48:18;14.70;99.90
11446;DHT22;5779;64.178;15.432;2023-06-22T12:51:05;14.70;99.90
11446;DHT22;5779;64.178;15.432;2023-06-22T12:53:52;14.80;99.90
11446;DHT22;5779;64.178;15.432;2023-06-22T12:56:40;14.90;99.90
11446;DHT22;5779;64.178;15.432;2023-06-22T12:59:29;14.80;99.90
11446;DHT22;5779;64.178;15.432;2023-06-22T13:02:15;14.90;99.90
11446;DHT22;5779;64.178;15.432;2023-06-22T13:05:03;14.80;99.90
11446;DHT22;5779;64.178;15.432;2023-06-22T13:07:51;14.80;99.90
11446;DHT22;5779;64.178;15.432;2023-06-22T13:10:38;14.70;99.90
11446;DHT22;5779;64.178;15.432;2023-06-22T13:13:26;14.70;99.90
11446;DHT22;5779;64.178;15.432;2023-06-22T13:16:14;14.80;99.90
11446;DHT22;5779;64.178;15.432;2023-06-22T13:19:00;14.80;99.90
11446;DHT22;5779;64.178;15.432;2023-06-22T13:21:47;14.80;99.90
11446;DHT22;5779;64.178;15.432;2023-06-22T13:24:34;14.90;99.90
11446;DHT22;5779;64.178;15.432;2023-06-22T13:27:21;14.80;99.90
11446;DHT22;5779;64.178;15.432;2023-06-22T13:30:10;14.80;99.90
11446;DHT22;5779;64.178;15.432;2023-06-22T13:32:57;14.80;99.90
11446;DHT22;5779;64.178;15.432;2023-06-22T13:35:44;14.80;99.90
11446;DHT22;5779;64.178;15.432;2023-06-22T13:38:30;14.80;99.90
11446;DHT22;5779;64.178;15.432;2023-06-22T13:41:17;14.70;99.90
11446;DHT22;5779;64.178;15.432;2023-06-22T13:44:04;14.90;99.90
11446;DHT22;5779;64.178;15.432;2023-06-22T13:46:52;14.80;99.90
11446;DHT22;5779;64.178;15.432;2023-06-22T13:49:39;14.90;99.90
11446;DHT22;5779;64.178;15.432;2023-06-22T13:52:26;14.70;99.90
11446;DHT22;5779;64.178;15.432;2023-06-22T13:55:13;14.60;99.90
11446;DHT22;5779;64.178;15.432;2023-06-22T13:58:00;14.60;99.90
11446;DHT22;5779;64.178;15.432;2023-06-22T14:00:47;14.40;99.90
11446;DHT22;5779;64.178;15.432;2023-06-22T14:03:35;14.40;99.90
11446;DHT22;5779;64.178;15.432;2023-06-22T14:06:22;14.40;99.90
11446;DHT22;5779;64.178;15.432;2023-06-22T14:09:09;14.50;99.90
11446;DHT22;5779;64.178;15.432;2023-06-22T14:11:56;14.50;99.90
11446;DHT22;5779;64.178;15.432;2023-06-22T14:14:43;14.50;99.90
11446;DHT22;5779;64.178;15.432;2023-06-22T14:17:30;14.60;99.90
11446;DHT22;5779;64.178;15.432;2023-06-22T14:20:19;14.80;99.90
11446;DHT22;5779;64.178;15.432;2023-06-22T14:23:06;14.90;99.90
11446;DHT22;5779;64.178;15.432;2023-06-22T14:25:53;14.90;99.90
11446;DHT22;5779;64.178;15.432;2023-06-22T14:28:40;14.90;99.90
11446;DHT22;5779;64.178;15.432;2023-06-22T14:31:27;14.80;99.90
11446;DHT22;5779;64.178;15.432;2023-06-22T14:34:14;14.80;99.90
11446;DHT22;5779;64.178;15.432;2023-06-22T14:37:03;14.70;99.90
11446;DHT22;5779;64.178;15.432;2023-06-22T14:39:51;14.80;99.90
11446;DHT22;5779;64.178;15.432;2023-06-22T14:42:38;14.60;99.90
11446;DHT22;5779;64.178;15.432;2023-06-22T14:45:25;14.50;99.90
11446;DHT22;5779;64.178;15.432;2023-06-22T14:48:11;14.60;99.90
11446;DHT22;5779;64.178;15.432;2023-06-22T14:50:59;14.60;99.90
11446;DHT22;5779;64.178;15.432;2023-06-22T14:53:48;14.60;99.90
11446;DHT22;5779;64.178;15.432;2023-06-22T14:56:35;14.50;99.90
11446;DHT22;5779;64.178;15.432;2023-06-22T14:59:21;14.60;99.90
11446;DHT22;5779;64.178;15.432;2023-06-22T15:02:09;14.60;99.90
11446;DHT22;5779;64.178;15.432;2023-06-22T15:04:55;14.60;99.90
11446;DHT22;5779;64.178;15.432;2023-06-22T15:07:42;14.70;99.90
11446;DHT22;5779;64.178;15.432;2023-06-22T15:10:30;14.90;99.90
11446;DHT22;5779;64.178;15.432;2023-06-22T15:13:18;14.90;99.90
11446;DHT22;5779;64.178;15.432;2023-06-22T15:16:05;15.10;99.90
11446;DHT22;5779;64.178;15.432;2023-06-22T15:18:51;15.20;99.90
11446;DHT22;5779;64.178;15.432;2023-06-22T15:21:38;15.10;99.90
11446;DHT22;5779;64.178;15.432;2023-06-22T15:24:25;15.40;99.90
11446;DHT22;5779;64.178;15.432;2023-06-22T15:27:14;15.90;99.90
11446;DHT22;5779;64.178;15.432;2023-06-22T15:30:01;16.10;99.90
11446;DHT22;5779;64.178;15.432;2023-06-22T15:32:49;15.90;99.90
11446;DHT22;5779;64.178;15.432;2023-06-22T15:35:36;16.00;99.90
11446;DHT22;5779;64.178;15.432;2023-06-22T15:38:23;16.20;99.90
11446;DHT22;5779;64.178;15.432;2023-06-22T15:41:09;16.50;99.90
11446;DHT22;5779;64.178;15.432;2023-06-22T15:43:58;16.30;99.90
11446;DHT22;5779;64.178;15.432;2023-06-22T15:46:45;16.30;99.90
11446;DHT22;5779;64.178;15.432;2023-06-22T15:49:32;16.20;99.90
11446;DHT22;5779;64.178;15.432;2023-06-22T15:52:18;16.00;99.90
11446;DHT22;5779;64.178;15.432;2023-06-22T15:55:06;15.60;99.90
11446;DHT22;5779;64.178;15.432;2023-06-22T15:57:54;15.80;99.90
11446;DHT22;5779;64.178;15.432;2023-06-22T16:00:43;15.70;99.90
11446;DHT22;5779;64.178;15.432;2023-06-22T16:03:34;16.30;99.90
11446;DHT22;5779;64.178;15.432;2023-06-22T16:06:21;16.30;99.90
11446;DHT22;5779;64.178;15.432;2023-06-22T16:09:08;16.30;99.90
11446;DHT22;5779;64.178;15.432;2023-06-22T16:11:55;16.40;99.90
11446;DHT22;5779;64.178;15.432;2023-06-22T16:14:42;16.30;99.90
11446;DHT22;5779;64.178;15.432;2023-06-22T16:17:31;16.20;99.90
11446;DHT22;5779;64.178;15.432;2023-06-22T16:20:22;16.20;99.90
11446;DHT22;5779;64.178;15.432;2023-06-22T16:23:09;15.90;99.90
11446;DHT22;5779;64.178;15.432;2023-06-22T16:25:56;15.90;99.90
11446;DHT22;5779;64.178;15.432;2023-06-22T16:28:43;16.00;99.90
11446;DHT22;5779;64.178;15.432;2023-06-22T16:31:30;16.00;99.90
11446;DHT22;5779;64.178;15.432;2023-06-22T16:34:18;16.00;99.90
11446;DHT22;5779;64.178;15.432;2023-06-22T16:37:05;15.90;99.90
11446;DHT22;5779;64.178;15.432;2023-06-22T16:39:52;15.90;99.90
11446;DHT22;5779;64.178;15.432;2023-06-22T16:42:39;15.90;99.90
11446;DHT22;5779;64.178;15.432;2023-06-22T16:45:26;15.80;99.90
11446;DHT22;5779;64.178;15.432;2023-06-22T16:48:13;15.80;99.90
11446;DHT22;5779;64.178;15.432;2023-06-22T16:51:01;16.20;99.90
11446;DHT22;5779;64.178;15.432;2023-06-22T16:53:53;15.70;99.90
11446;DHT22;5779;64.178;15.432;2023-06-22T16:56:42;16.10;99.90
11446;DHT22;5779;64.178;15.432;2023-06-22T16:59:29;16.00;99.90
11446;DHT22;5779;64.178;15.432;2023-06-22T17:02:17;15.90;99.90
11446;DHT22;5779;64.178;15.432;2023-06-22T17:05:06;15.80;99.90
11446;DHT22;5779;64.178;15.432;2023-06-22T17:08:03;15.70;99.90
11446;DHT22;5779;64.178;15.432;2023-06-22T17:10:51;15.40;99.90
11446;DHT22;5779;64.178;15.432;2023-06-22T17:13:38;15.50;99.90
11446;DHT22;5779;64.178;15.432;2023-06-22T17:16:26;15.60;99.90
11446;DHT22;5779;64.178;15.432;2023-06-22T17:19:15;15.40;99.90
11446;DHT22;5779;64.178;15.432;2023-06-22T17:22:03;15.70;99.90
11446;DHT22;5779;64.178;15.432;2023-06-22T17:24:52;15.70;99.90
11446;DHT22;5779;64.178;15.432;2023-06-22T17:27:38;15.60;99.90
11446;DHT22;5779;64.178;15.432;2023-06-22T17:30:25;15.70;99.90
11446;DHT22;5779;64.178;15.432;2023-06-22T17:33:14;15.60;99.90
11446;DHT22;5779;64.178;15.432;2023-06-22T17:36:08;15.80;99.90
11446;DHT22;5779;64.178;15.432;2023-06-22T17:38:59;15.70;99.90